sim
Sign-in with your pilot id or email,
or register
Callsign
Passwort

Schedule Details

Flight Number: OEO6354
Departure: Munich Airport (EDDM) at 09:35
Arrival: Mumbai Chhatrapati Shivaji International Airport (VABB) at 17:35

Weather Information
Getting current METAR information for EDDM 092320Z 27009KT 240V300 9999 -SHRA SCT014TCU BKN032 04/03 Q1013 NOSIG
Getting current METAR information for VABB 092300Z 07004KT 3000 HZ NSC 26/20 Q1012 NOSIG

Schedule Frequency

Route Map